createdAt,value
2018-05-26T00:00:23.556Z,76.52
2018-05-26T00:01:23.695Z,76.29
2018-05-26T00:02:23.838Z,76.09
2018-05-26T00:03:23.974Z,76.86
2018-05-26T00:04:24.120Z,76.96
2018-05-26T00:05:24.267Z,76.96
2018-05-26T00:06:24.454Z,76.77
2018-05-26T00:07:24.665Z,76.96
2018-05-26T00:08:24.776Z,76.77
2018-05-26T00:09:24.790Z,76.77
2018-05-26T00:10:24.927Z,77.25
2018-05-26T00:11:25.107Z,77.06
2018-05-26T00:12:25.312Z,77.09
2018-05-26T00:13:25.421Z,77.15
2018-05-26T00:14:25.442Z,77.34
2018-05-26T00:15:25.641Z,77.44
2018-05-26T00:16:25.654Z,76.57
2018-05-26T00:17:25.797Z,76.77
2018-05-26T00:18:25.968Z,76.48
2018-05-26T00:19:26.177Z,76.48
2018-05-26T00:20:26.295Z,76.57
2018-05-26T00:21:26.401Z,76.77
2018-05-26T00:22:26.504Z,76.48
2018-05-26T00:23:26.522Z,76.77
2018-05-26T00:24:26.728Z,76.39
2018-05-26T00:25:26.835Z,76.48
2018-05-26T00:26:26.941Z,76.39
2018-05-26T00:27:27.056Z,77.44
2018-05-26T00:28:27.071Z,77.06
2018-05-26T00:29:27.206Z,77.06
2018-05-26T00:30:27.379Z,77.73
2018-05-26T00:31:27.521Z,77.34
2018-05-26T00:32:27.658Z,77.25
2018-05-26T00:33:27.797Z,77.53
2018-05-26T00:34:27.943Z,77.06
2018-05-26T00:35:28.131Z,77.25
2018-05-26T00:36:28.334Z,77.25
2018-05-26T00:37:28.447Z,77.44
2018-05-26T00:38:28.559Z,76.57
2018-05-26T00:39:28.579Z,76.77
2018-05-26T00:40:28.716Z,76.57
2018-05-26T00:41:28.848Z,76.77
2018-05-26T00:42:28.993Z,76.96
2018-05-26T00:43:29.209Z,76.09
2018-05-26T00:44:29.309Z,76.29
2018-05-26T00:45:29.424Z,76.86
2018-05-26T00:46:29.446Z,76.48
2018-05-26T00:47:29.639Z,76.57
2018-05-26T00:48:29.856Z,76.77
2018-05-26T00:49:29.961Z,76.39
2018-05-26T00:50:30.068Z,76.77
2018-05-26T00:51:30.179Z,77.53
2018-05-26T00:52:30.193Z,77.83
2018-05-26T00:53:30.337Z,78.45
2018-05-26T00:54:30.505Z,78.27
2018-05-26T00:55:30.718Z,78.55
2018-05-26T00:56:30.828Z,78.65
2018-05-26T00:57:30.938Z,79.22
2018-05-26T00:58:30.951Z,79.22
2018-05-26T00:59:31.161Z,79.03
2018-05-26T01:00:31.273Z,78.55
2018-05-26T01:01:31.289Z,78.84
2018-05-26T01:02:31.426Z,78.75
2018-05-26T01:03:31.586Z,79.13
2018-05-26T01:04:31.800Z,78.94
2018-05-26T01:05:31.909Z,78.84
2018-05-26T01:06:32.019Z,78.75
2018-05-26T01:07:32.128Z,79.52
2018-05-26T01:08:32.236Z,78.75
2018-05-26T01:09:32.350Z,78.27
2018-05-26T01:10:32.362Z,78.45
2018-05-26T01:11:32.563Z,78.45
2018-05-26T01:12:32.577Z,78.55
2018-05-26T01:13:32.783Z,77.78
2018-05-26T01:14:32.888Z,77.59
2018-05-26T01:15:32.999Z,77.78
2018-05-26T01:16:33.137Z,77.88
2018-05-26T01:17:33.218Z,77.59
2018-05-26T01:18:33.236Z,77.40
2018-05-26T01:19:33.435Z,77.50
2018-05-26T01:20:33.650Z,77.50
2018-05-26T01:21:33.797Z,77.40
2018-05-26T01:22:33.865Z,77.88
2018-05-26T01:23:34.003Z,77.59
2018-05-26T01:24:34.195Z,77.40
2018-05-26T01:25:34.398Z,77.40
2018-05-26T01:26:34.505Z,77.69
2018-05-26T01:27:34.617Z,77.50
2018-05-26T01:28:34.724Z,77.40
2018-05-26T01:29:34.745Z,77.40
2018-05-26T01:30:34.944Z,78.08
2018-05-26T01:31:34.961Z,77.88
2018-05-26T01:32:35.100Z,77.56
2018-05-26T01:33:35.273Z,77.59
2018-05-26T01:34:35.483Z,78.45
2018-05-26T01:35:35.497Z,77.59
2018-05-26T01:36:35.703Z,78.36
2018-05-26T01:37:35.811Z,77.78
2018-05-26T01:38:35.974Z,78.17
2018-05-26T01:39:35.984Z,77.40
2018-05-26T01:40:36.143Z,77.78
2018-05-26T01:41:36.281Z,77.98
2018-05-26T01:42:36.458Z,77.31
2018-05-26T01:43:36.670Z,77.21
2018-05-26T01:44:36.778Z,77.40
2018-05-26T01:45:36.890Z,77.36
2018-05-26T01:46:36.999Z,76.92
2018-05-26T01:47:37.008Z,77.08
2018-05-26T01:48:37.149Z,77.08
2018-05-26T01:49:37.288Z,77.08
2018-05-26T01:50:37.532Z,77.08
2018-05-26T01:51:37.641Z,77.56
2018-05-26T01:52:37.753Z,77.84
2018-05-26T01:53:37.764Z,77.84
2018-05-26T01:54:37.973Z,77.46
2018-05-26T01:55:38.740Z,77.65
2018-05-26T01:56:38.185Z,77.26
2018-05-26T01:57:38.296Z,77.94
2018-05-26T01:58:38.408Z,78.52
2018-05-26T01:59:38.550Z,78.70
2018-05-26T02:00:38.632Z,78.61
2018-05-26T02:01:38.737Z,79.19
2018-05-26T02:02:38.844Z,78.99
2018-05-26T02:03:38.952Z,79.19
2018-05-26T02:04:38.972Z,79.57
2018-05-26T02:05:39.114Z,80.01
2018-05-26T02:06:39.294Z,80.87
2018-05-26T02:07:39.495Z,81.07
2018-05-26T02:08:39.602Z,81.07
2018-05-26T02:09:39.712Z,80.68
2018-05-26T02:10:39.820Z,80.49
2018-05-26T02:11:39.876Z,80.20
2018-05-26T02:12:40.001Z,80.40
2018-05-26T02:13:40.251Z,80.40
2018-05-26T02:14:40.362Z,79.38
2018-05-26T02:15:40.462Z,79.57
2018-05-26T02:16:40.480Z,79.44
2018-05-26T02:17:40.682Z,79.57
2018-05-26T02:18:40.792Z,79.76
2018-05-26T02:19:40.905Z,79.19
2018-05-26T02:20:41.011Z,79.38
2018-05-26T02:21:41.124Z,78.90
2018-05-26T02:22:41.134Z,78.99
2018-05-26T02:23:41.334Z,78.80
2018-05-26T02:24:41.551Z,78.80
2018-05-26T02:25:41.658Z,78.32
2018-05-26T02:26:41.668Z,78.61
2018-05-26T02:27:41.876Z,77.94
2018-05-26T02:28:41.892Z,77.46
2018-05-26T02:29:42.031Z,77.36
2018-05-26T02:30:42.203Z,77.56
2018-05-26T02:31:42.343Z,77.42
2018-05-26T02:32:42.522Z,77.80
2018-05-26T02:33:42.741Z,77.56
2018-05-26T02:34:42.845Z,77.61
2018-05-26T02:35:42.951Z,78.09
2018-05-26T02:36:43.060Z,78.38
2018-05-26T02:37:43.075Z,78.77
2018-05-26T02:38:43.282Z,78.67
2018-05-26T02:39:43.299Z,79.05
2018-05-26T02:40:43.435Z,79.05
2018-05-26T02:41:43.608Z,78.47
2018-05-26T02:42:43.787Z,78.67
2018-05-26T02:43:44.033Z,78.57
2018-05-26T02:44:44.137Z,78.19
2018-05-26T02:45:44.250Z,77.71
2018-05-26T02:46:44.272Z,77.61
2018-05-26T02:47:44.493Z,77.51
2018-05-26T02:48:44.509Z,77.80
2018-05-26T02:49:44.650Z,77.42
2018-05-26T02:50:44.788Z,77.61
2018-05-26T02:51:44.929Z,78.28
2018-05-26T02:52:45.117Z,78.57
2018-05-26T02:53:45.259Z,79.44
2018-05-26T02:54:45.395Z,79.53
2018-05-26T02:55:45.646Z,79.44
2018-05-26T02:56:45.665Z,79.72
2018-05-26T02:57:45.801Z,78.77
2018-05-26T02:58:45.974Z,78.77
2018-05-26T02:59:46.187Z,78.67
2018-05-26T03:00:46.292Z,78.77
2018-05-26T03:01:46.406Z,78.67
2018-05-26T03:02:46.514Z,78.00
2018-05-26T03:03:46.537Z,77.51
2018-05-26T03:04:46.676Z,77.04
2018-05-26T03:05:46.803Z,77.13
2018-05-26T03:06:47.052Z,77.04
2018-05-26T03:07:47.202Z,77.51
2018-05-26T03:08:47.271Z,77.42
2018-05-26T03:09:47.376Z,77.71
2018-05-26T03:10:47.398Z,77.71
2018-05-26T03:11:47.539Z,78.47
2018-05-26T03:12:47.701Z,78.09
2018-05-26T03:13:47.846Z,78.57
2018-05-26T03:14:48.021Z,78.28
2018-05-26T03:15:48.159Z,78.67
2018-05-26T03:16:48.300Z,78.86
2018-05-26T03:17:48.553Z,79.05
2018-05-26T03:18:48.672Z,78.86
2018-05-26T03:19:48.784Z,78.96
2018-05-26T03:20:48.885Z,78.96
2018-05-26T03:21:48.900Z,78.86
2018-05-26T03:22:49.099Z,78.47
2018-05-26T03:23:49.113Z,78.77
2018-05-26T03:24:49.258Z,79.24
2018-05-26T03:25:49.430Z,78.96
2018-05-26T03:26:49.569Z,78.38
2018-05-26T03:27:49.750Z,78.77
2018-05-26T03:28:49.926Z,79.05
2018-05-26T03:29:50.172Z,78.47
2018-05-26T03:30:50.281Z,78.57
2018-05-26T03:31:50.757Z,77.86
2018-05-26T03:32:50.504Z,78.57
2018-05-26T03:33:50.521Z,78.57
2018-05-26T03:34:50.662Z,78.57
2018-05-26T03:35:50.827Z,79.44
2018-05-26T03:36:51.035Z,79.59
2018-05-26T03:37:51.046Z,79.59
2018-05-26T03:38:51.194Z,79.49
2018-05-26T03:39:51.330Z,79.05
2018-05-26T03:40:51.611Z,79.24
2018-05-26T03:41:51.684Z,79.30
2018-05-26T03:42:51.895Z,79.05
2018-05-26T03:43:52.757Z,78.92
2018-05-26T03:44:52.054Z,78.63
2018-05-26T03:45:52.228Z,78.44
2018-05-26T03:46:52.368Z,78.92
2018-05-26T03:47:52.497Z,78.92
2018-05-26T03:48:52.646Z,78.63
2018-05-26T03:49:52.869Z,79.21
2018-05-26T03:50:52.882Z,79.01
2018-05-26T03:51:53.083Z,79.30
2018-05-26T03:52:53.093Z,79.59
2018-05-26T03:53:53.235Z,79.39
2018-05-26T03:54:53.414Z,79.39
2018-05-26T03:55:53.548Z,79.44
2018-05-26T03:56:53.732Z,80.30
2018-05-26T03:57:53.953Z,80.20
2018-05-26T03:58:54.049Z,79.88
2018-05-26T03:59:54.162Z,80.07
2018-05-26T04:00:54.180Z,79.97
2018-05-26T04:01:54.379Z,80.16
2018-05-26T04:02:54.516Z,80.74
2018-05-26T04:03:54.658Z,80.55
2018-05-26T04:04:54.911Z,80.74
2018-05-26T04:05:55.070Z,80.93
2018-05-26T04:06:55.132Z,80.45
2018-05-26T04:07:55.237Z,80.35
2018-05-26T04:08:55.350Z,80.16
2018-05-26T04:09:55.453Z,80.45
2018-05-26T04:10:55.562Z,80.58
2018-05-26T04:11:55.586Z,80.87
2018-05-26T04:12:55.729Z,80.87
2018-05-26T04:13:55.896Z,80.64
2018-05-26T04:14:56.106Z,80.49
2018-05-26T04:15:56.211Z,80.97
2018-05-26T04:16:56.222Z,80.58
2018-05-26T04:17:56.428Z,80.97
2018-05-26T04:18:56.439Z,81.07
2018-05-26T04:19:56.649Z,80.58
2018-05-26T04:20:56.756Z,80.49
2018-05-26T04:21:56.865Z,80.87
2018-05-26T04:22:56.977Z,80.78
2018-05-26T04:23:57.086Z,80.74
2018-05-26T04:24:57.192Z,81.12
2018-05-26T04:25:57.209Z,81.98
2018-05-26T04:26:57.353Z,81.70
2018-05-26T04:27:57.525Z,81.31
2018-05-26T04:28:57.747Z,81.37
2018-05-26T04:29:58.865Z,81.95
2018-05-26T04:30:57.955Z,81.56
2018-05-26T04:31:58.057Z,82.23
2018-05-26T04:32:58.068Z,82.42
2018-05-26T04:33:58.278Z,82.42
2018-05-26T04:34:58.383Z,82.23
2018-05-26T04:35:58.497Z,81.85
2018-05-26T04:36:58.610Z,82.04
2018-05-26T04:37:58.716Z,81.95
2018-05-26T04:38:58.822Z,82.67
2018-05-26T04:39:58.934Z,83.44
2018-05-26T04:40:59.041Z,83.82
2018-05-26T04:41:59.148Z,83.34
2018-05-26T04:42:59.254Z,83.67
2018-05-26T04:43:59.368Z,83.82
2018-05-26T04:44:59.391Z,83.67
2018-05-26T04:46:00.265Z,83.76
2018-05-26T04:46:59.687Z,83.19
2018-05-26T04:47:59.901Z,83.19
2018-05-26T04:48:59.916Z,83.09
2018-05-26T04:50:00.066Z,83.09
2018-05-26T04:51:00.272Z,83.58
2018-05-26T04:52:00.311Z,83.00
2018-05-26T04:53:00.453Z,82.62
2018-05-26T04:54:00.662Z,82.94
2018-05-26T04:55:00.679Z,82.52
2018-05-26T04:56:00.881Z,83.48
2018-05-26T04:57:00.991Z,83.86
2018-05-26T04:58:01.099Z,82.90
2018-05-26T04:59:01.225Z,83.58
2018-05-26T05:00:01.228Z,83.38
2018-05-26T05:01:01.425Z,82.65
2018-05-26T05:02:01.636Z,82.75
2018-05-26T05:03:01.650Z,82.75
2018-05-26T05:04:01.857Z,82.56
2018-05-26T05:05:01.969Z,83.42
2018-05-26T05:06:02.073Z,82.75
2018-05-26T05:07:02.191Z,82.94
2018-05-26T05:08:02.291Z,82.65
2018-05-26T05:09:02.400Z,83.04
2018-05-26T05:10:02.514Z,83.04
2018-05-26T05:11:02.530Z,82.79
2018-05-26T05:12:02.668Z,82.46
2018-05-26T05:13:02.839Z,82.41
2018-05-26T05:14:02.980Z,81.93
2018-05-26T05:15:03.162Z,82.12
2018-05-26T05:16:03.407Z,82.03
2018-05-26T05:17:03.479Z,82.03
2018-05-26T05:18:03.591Z,82.31
2018-05-26T05:19:03.608Z,82.31
2018-05-26T05:20:03.751Z,82.21
2018-05-26T05:21:03.882Z,82.31
2018-05-26T05:22:04.160Z,81.74
2018-05-26T05:23:04.232Z,81.74
2018-05-26T05:24:04.255Z,82.03
2018-05-26T05:25:04.453Z,82.12
2018-05-26T05:26:04.477Z,82.60
2018-05-26T05:27:04.614Z,82.70
2018-05-26T05:28:04.752Z,83.08
2018-05-26T05:29:05.001Z,83.33
2018-05-26T05:30:05.009Z,83.81
2018-05-26T05:31:05.154Z,84.25
2018-05-26T05:32:05.322Z,85.30
2018-05-26T05:33:05.461Z,85.68
2018-05-26T05:34:05.641Z,85.78
2018-05-26T05:35:05.778Z,86.35
2018-05-26T05:36:06.010Z,86.54
2018-05-26T05:37:06.028Z,86.83
2018-05-26T05:38:06.162Z,86.35
2018-05-26T05:39:06.302Z,86.25
2018-05-26T05:40:06.499Z,86.16
2018-05-26T05:41:06.710Z,85.82
2018-05-26T05:42:06.729Z,86.01
2018-05-26T05:43:06.930Z,86.01
2018-05-26T05:44:07.053Z,85.72
2018-05-26T05:45:07.150Z,85.25
2018-05-26T05:46:07.164Z,85.34
2018-05-26T05:47:07.363Z,85.19
2018-05-26T05:48:07.472Z,84.77
2018-05-26T05:49:07.487Z,84.71
2018-05-26T05:50:07.696Z,84.71
2018-05-26T05:51:07.718Z,84.71
2018-05-26T05:52:07.914Z,84.42
2018-05-26T05:53:08.051Z,84.52
2018-05-26T05:54:08.196Z,84.71
2018-05-26T05:55:08.482Z,84.71
2018-05-26T05:56:08.491Z,84.52
2018-05-26T05:57:08.660Z,84.42
2018-05-26T05:58:08.873Z,85.00
2018-05-26T05:59:08.983Z,84.91
2018-05-26T06:00:08.995Z,84.42
2018-05-26T06:01:09.201Z,84.37
2018-05-26T06:02:09.309Z,84.47
2018-05-26T06:03:09.421Z,85.00
2018-05-26T06:04:09.433Z,84.75
2018-05-26T06:05:09.643Z,85.19
2018-05-26T06:06:09.749Z,85.48
2018-05-26T06:07:10.821Z,85.67
2018-05-26T06:08:09.858Z,85.81
2018-05-26T06:09:10.072Z,85.81
2018-05-26T06:10:10.087Z,85.91
2018-05-26T06:11:10.237Z,85.24
2018-05-26T06:12:10.399Z,86.10
2018-05-26T06:13:10.539Z,85.71
2018-05-26T06:14:10.718Z,85.81
2018-05-26T06:15:10.931Z,85.71
2018-05-26T06:16:10.938Z,85.33
2018-05-26T06:17:11.085Z,84.66
2018-05-26T06:18:11.221Z,84.85
2018-05-26T06:19:11.363Z,84.31
2018-05-26T06:20:11.581Z,84.70
2018-05-26T06:21:11.689Z,83.74
2018-05-26T06:22:11.698Z,84.31
2018-05-26T06:23:11.842Z,84.03
2018-05-26T06:24:11.981Z,83.84
2018-05-26T06:25:12.122Z,84.03
2018-05-26T06:26:12.257Z,83.49
2018-05-26T06:27:12.402Z,82.92
2018-05-26T06:28:12.539Z,83.97
2018-05-26T06:29:12.759Z,83.78
2018-05-26T06:30:12.781Z,83.20
2018-05-26T06:31:12.981Z,83.20
2018-05-26T06:32:12.995Z,84.17
2018-05-26T06:33:13.137Z,83.87
2018-05-26T06:34:13.284Z,84.17
2018-05-26T06:35:13.430Z,84.07
2018-05-26T06:36:13.634Z,83.73
2018-05-26T06:37:13.645Z,83.44
2018-05-26T06:38:13.856Z,83.73
2018-05-26T06:39:13.955Z,84.01
2018-05-26T06:40:13.978Z,82.86
2018-05-26T06:41:14.115Z,82.86
2018-05-26T06:42:14.266Z,83.06
2018-05-26T06:43:14.401Z,83.06
2018-05-26T06:44:14.539Z,82.96
2018-05-26T06:45:14.717Z,83.15
2018-05-26T06:46:14.930Z,83.15
2018-05-26T06:47:15.033Z,82.96
2018-05-26T06:48:15.048Z,83.06
2018-05-26T06:49:15.198Z,82.86
2018-05-26T06:50:15.367Z,82.61
2018-05-26T06:51:15.590Z,82.32
2018-05-26T06:52:15.681Z,82.23
2018-05-26T06:53:15.697Z,81.75
2018-05-26T06:54:15.902Z,82.42
2018-05-26T06:55:16.012Z,82.23
2018-05-26T06:56:16.115Z,82.23
2018-05-26T06:57:16.133Z,81.65
2018-05-26T06:58:16.337Z,81.46
2018-05-26T06:59:16.442Z,81.17
2018-05-26T07:00:16.506Z,81.56
2018-05-26T07:01:16.666Z,81.94
2018-05-26T07:02:16.774Z,81.40
2018-05-26T07:03:16.882Z,81.21
2018-05-26T07:04:17.159Z,81.21
2018-05-26T07:05:17.056Z,81.40
2018-05-26T07:06:17.322Z,81.70
2018-05-26T07:07:17.422Z,82.17
2018-05-26T07:08:17.533Z,82.56
2018-05-26T07:09:17.643Z,82.27
2018-05-26T07:10:17.679Z,81.70
2018-05-26T07:11:17.862Z,81.60
2018-05-26T07:12:18.110Z,81.98
2018-05-26T07:14:50.406Z,81.98
2018-05-26T07:15:50.555Z,81.54
2018-05-26T07:16:50.691Z,81.63
2018-05-26T07:17:50.843Z,81.93
2018-05-26T07:18:50.984Z,82.31
2018-05-26T07:19:51.120Z,82.02
2018-05-26T07:20:51.259Z,81.45
2018-05-26T07:21:51.384Z,81.45
2018-05-26T07:22:51.523Z,81.73
2018-05-26T07:23:51.667Z,81.25
2018-05-26T07:24:51.809Z,82.31
2018-05-26T07:25:51.949Z,81.54
2018-05-26T07:26:52.089Z,82.06
2018-05-26T07:27:52.280Z,81.83
2018-05-26T07:28:52.393Z,81.54
2018-05-26T07:29:52.538Z,81.87
2018-05-26T07:30:52.675Z,82.16
2018-05-26T07:31:52.816Z,82.16
2018-05-26T07:32:53.010Z,82.16
2018-05-26T07:33:53.038Z,82.64
2018-05-26T07:34:53.180Z,82.93
2018-05-26T07:35:53.322Z,82.64
2018-05-26T07:36:53.556Z,82.35
2018-05-26T07:37:53.662Z,81.96
2018-05-26T07:38:53.680Z,81.48
2018-05-26T07:39:53.825Z,81.39
2018-05-26T07:40:53.992Z,81.77
2018-05-26T07:41:54.129Z,80.91
2018-05-26T07:42:54.270Z,80.91
2018-05-26T07:43:54.524Z,80.91
2018-05-26T07:44:54.628Z,81.14
2018-05-26T07:45:54.644Z,81.33
2018-05-26T07:46:54.851Z,81.33
2018-05-26T07:47:54.961Z,81.72
2018-05-26T07:48:55.073Z,81.81
2018-05-26T07:49:55.089Z,82.01
2018-05-26T07:50:55.310Z,81.52
2018-05-26T07:51:55.497Z,82.01
2018-05-26T07:52:55.552Z,81.14
2018-05-26T07:53:55.749Z,81.24
2018-05-26T07:54:55.772Z,80.94
2018-05-26T07:55:55.938Z,81.91
2018-05-26T07:56:56.143Z,82.68
2018-05-26T07:57:56.183Z,81.72
2018-05-26T07:58:56.324Z,82.05
2018-05-26T07:59:56.577Z,82.53
2018-05-26T08:00:56.681Z,82.39
2018-05-26T08:01:56.755Z,82.01
2018-05-26T08:02:56.901Z,81.33
2018-05-26T08:03:57.044Z,81.27
2018-05-26T08:04:57.199Z,80.89
2018-05-26T08:05:57.444Z,81.09
2018-05-26T08:06:57.549Z,81.18
2018-05-26T08:07:57.652Z,80.89
2018-05-26T08:08:57.761Z,81.27
2018-05-26T08:09:57.828Z,80.60
2018-05-26T08:10:57.997Z,79.16
2018-05-26T08:11:58.095Z,79.74
2018-05-26T08:12:58.309Z,79.93
2018-05-26T08:13:58.413Z,78.96
2018-05-26T08:14:58.424Z,79.35
2018-05-26T08:15:58.637Z,78.77
2018-05-26T08:16:58.708Z,78.00
2018-05-26T08:17:58.848Z,77.94
2018-05-26T08:18:58.996Z,76.88
2018-05-26T08:19:59.201Z,76.30
2018-05-26T08:20:59.278Z,75.82
2018-05-26T08:21:59.294Z,75.62
2018-05-26T08:22:59.556Z,74.95
2018-05-26T08:23:59.568Z,74.85
2018-05-26T08:24:59.722Z,74.66
2018-05-26T08:25:59.865Z,75.62
2018-05-26T08:27:00.009Z,74.08
2018-05-26T08:28:00.154Z,73.50
2018-05-26T08:29:00.293Z,72.83
2018-05-26T08:30:00.460Z,71.77
2018-05-26T08:31:00.604Z,71.86
2018-05-26T08:32:00.784Z,71.67
2018-05-26T08:33:00.920Z,71.00
2018-05-26T08:34:01.101Z,71.80
2018-05-26T08:35:01.249Z,71.70
2018-05-26T08:36:01.425Z,71.12
2018-05-26T08:37:01.568Z,70.03
2018-05-26T08:38:01.745Z,68.43
2018-05-26T08:39:01.952Z,67.17
2018-05-26T08:40:02.066Z,67.85
2018-05-26T08:41:02.169Z,68.62
2018-05-26T08:42:02.206Z,66.59
2018-05-26T08:43:02.391Z,65.34
2018-05-26T08:44:02.533Z,63.60
2018-05-26T08:45:02.670Z,64.08
2018-05-26T08:46:02.820Z,63.50
2018-05-26T08:47:03.032Z,63.21
2018-05-26T08:48:03.057Z,63.70
2018-05-26T08:49:03.250Z,63.73
2018-05-26T08:50:03.461Z,63.82
2018-05-26T08:51:03.571Z,60.93
2018-05-26T08:52:03.592Z,61.80
2018-05-26T08:53:03.737Z,62.37
2018-05-26T08:54:04.001Z,62.18
2018-05-26T08:55:04.107Z,63.43
2018-05-26T08:56:04.217Z,63.15
2018-05-26T08:57:04.410Z,62.37
2018-05-26T08:58:04.404Z,62.18
2018-05-26T08:59:04.652Z,62.66
2018-05-26T09:00:04.764Z,63.66
2018-05-26T09:01:04.892Z,63.82
2018-05-26T09:02:04.904Z,63.18
2018-05-26T09:03:05.083Z,62.31
2018-05-26T09:04:05.249Z,62.60
2018-05-26T09:05:05.386Z,62.89
2018-05-26T09:06:05.616Z,62.89
2018-05-26T09:07:05.724Z,62.12
2018-05-26T09:08:05.852Z,62.70
2018-05-26T09:09:05.868Z,62.40
2018-05-26T09:10:06.011Z,60.67
2018-05-26T09:11:06.159Z,60.18
2018-05-26T09:12:06.378Z,61.63
2018-05-26T09:13:06.479Z,61.44
2018-05-26T09:14:06.588Z,60.99
2018-05-26T09:15:06.699Z,61.27
2018-05-26T09:16:06.734Z,61.76
2018-05-26T09:17:06.941Z,61.18
2018-05-26T09:18:07.023Z,60.89
2018-05-26T09:19:07.041Z,62.44
2018-05-26T09:20:07.250Z,60.11
2018-05-26T09:21:07.264Z,61.66
2018-05-26T09:22:07.409Z,62.34
2018-05-26T09:23:07.572Z,61.76
2018-05-26T09:24:07.737Z,63.14
2018-05-26T09:25:08.830Z,60.92
2018-05-26T09:26:08.115Z,60.92
2018-05-26T09:27:08.231Z,59.95
2018-05-26T09:28:08.286Z,61.02
2018-05-26T09:29:08.535Z,60.34
2018-05-26T09:30:08.550Z,59.44
2018-05-26T09:31:08.703Z,60.14
2018-05-26T09:32:08.962Z,59.08
2018-05-26T09:33:09.728Z,59.38
2018-05-26T09:34:09.107Z,59.56
2018-05-26T09:35:09.249Z,58.63
2018-05-26T09:36:09.383Z,58.53
2018-05-26T09:37:09.535Z,58.80
2018-05-26T09:38:09.672Z,59.11
2018-05-26T09:39:09.813Z,58.72
2018-05-26T09:40:09.968Z,60.37
2018-05-26T09:41:10.149Z,58.14
2018-05-26T09:42:10.358Z,58.34
2018-05-26T09:43:10.505Z,61.53
2018-05-26T09:44:10.579Z,58.63
2018-05-26T09:45:10.595Z,58.44
2018-05-26T09:46:10.801Z,60.08
2018-05-26T09:47:10.905Z,58.44
2018-05-26T09:48:10.925Z,58.72
2018-05-26T09:49:11.070Z,60.08
2018-05-26T09:50:11.231Z,59.79
2018-05-26T09:51:11.444Z,59.63
2018-05-26T09:52:11.472Z,61.08
2018-05-26T09:53:11.599Z,60.30
2018-05-26T09:54:11.772Z,60.11
2018-05-26T09:55:11.912Z,59.72
2018-05-26T09:56:12.062Z,59.23
2018-05-26T09:57:12.216Z,59.43
2018-05-26T09:58:12.364Z,57.30
2018-05-26T09:59:12.502Z,56.72
2018-05-26T10:00:12.650Z,57.98
2018-05-26T10:01:12.794Z,58.37
2018-05-26T10:02:13.053Z,57.88
2018-05-26T10:03:13.081Z,59.72
2018-05-26T10:04:13.247Z,60.30
2018-05-26T10:05:13.481Z,58.95
2018-05-26T10:06:13.590Z,58.17
2018-05-26T10:07:13.615Z,58.17
2018-05-26T10:08:13.832Z,58.47
2018-05-26T10:09:13.842Z,58.59
2018-05-26T10:10:13.977Z,57.43
2018-05-26T10:11:14.138Z,57.04
2018-05-26T10:12:14.268Z,56.85
2018-05-26T10:13:14.434Z,55.20
2018-05-26T10:14:14.561Z,54.69
2018-05-26T10:15:14.704Z,54.39
2018-05-26T10:16:14.901Z,53.91
2018-05-26T10:17:15.041Z,54.21
2018-05-26T10:18:15.184Z,53.63
2018-05-26T10:19:15.328Z,53.23
2018-05-26T10:20:15.488Z,53.14
2018-05-26T10:21:15.635Z,53.63
2018-05-26T10:22:15.775Z,52.85
2018-05-26T10:23:15.941Z,54.81
2018-05-26T10:24:16.086Z,53.33
2018-05-26T10:25:16.243Z,53.75
2018-05-26T10:26:16.434Z,54.03
2018-05-26T10:27:16.550Z,54.03
2018-05-26T10:28:16.693Z,54.91
2018-05-26T10:29:16.835Z,55.10
2018-05-26T10:30:16.998Z,55.20
2018-05-26T10:31:17.143Z,55.58
2018-05-26T10:32:17.346Z,54.81
2018-05-26T10:33:17.432Z,55.30
2018-05-26T10:34:17.632Z,56.07
2018-05-26T10:35:17.739Z,56.56
2018-05-26T10:36:17.885Z,56.94
2018-05-26T10:37:18.041Z,55.98
2018-05-26T10:38:18.184Z,54.81
2018-05-26T10:39:18.319Z,54.71
2018-05-26T10:40:18.459Z,55.30
2018-05-26T10:41:18.650Z,54.91
2018-05-26T10:42:18.784Z,56.07
2018-05-26T10:43:18.928Z,56.56
2018-05-26T10:44:19.185Z,56.56
2018-05-26T10:45:19.193Z,56.16
2018-05-26T10:46:19.335Z,56.26
2018-05-26T10:47:19.515Z,56.39
2018-05-26T10:48:19.659Z,55.13
2018-05-26T10:49:19.801Z,55.04
2018-05-26T10:50:19.941Z,55.62
2018-05-26T10:51:20.078Z,55.42
2018-05-26T10:52:20.214Z,55.42
2018-05-26T10:53:20.362Z,55.04
2018-05-26T10:54:20.513Z,54.74
2018-05-26T10:55:20.658Z,54.35
2018-05-26T10:56:20.799Z,54.74
2018-05-26T10:57:20.944Z,54.45
2018-05-26T10:58:21.080Z,53.67
2018-05-26T10:59:21.226Z,54.16
2018-05-26T11:00:21.366Z,55.06
2018-05-26T11:01:21.510Z,54.96
2018-05-26T11:02:21.652Z,54.28
2018-05-26T11:03:21.804Z,54.58
2018-05-26T11:04:21.960Z,55.26
2018-05-26T11:05:22.094Z,54.09
2018-05-26T11:06:22.238Z,53.99
2018-05-26T11:07:22.381Z,53.41
2018-05-26T11:08:22.524Z,52.54
2018-05-26T11:09:22.669Z,54.19
2018-05-26T11:10:22.823Z,54.48
2018-05-26T11:11:22.968Z,52.93
2018-05-26T11:12:23.108Z,54.96
2018-05-26T11:13:23.299Z,54.77
2018-05-26T11:14:23.397Z,52.64
2018-05-26T11:15:23.543Z,54.19
2018-05-26T11:16:23.861Z,54.19
2018-05-26T11:17:23.836Z,54.77
2018-05-26T11:18:23.980Z,54.96
2018-05-26T11:19:24.133Z,54.28
2018-05-26T11:20:24.275Z,52.86
2018-05-26T11:21:24.425Z,53.34
2018-05-26T11:22:24.566Z,54.21
2018-05-26T11:23:24.751Z,53.53
2018-05-26T11:24:24.894Z,54.14
2018-05-26T11:25:25.023Z,56.96
2018-05-26T11:26:25.154Z,54.53
2018-05-26T11:27:25.299Z,52.11
2018-05-26T11:28:25.441Z,51.53
2018-05-26T11:29:25.596Z,51.62
2018-05-26T11:30:25.765Z,50.74
2018-05-26T11:31:25.899Z,51.33
2018-05-26T11:32:26.042Z,52.59
2018-05-26T11:33:26.245Z,52.50
2018-05-26T11:34:26.400Z,52.98
2018-05-26T11:35:26.537Z,52.08
2018-05-26T11:36:26.679Z,52.08
2018-05-26T11:37:26.841Z,52.56
2018-05-26T11:38:26.980Z,52.86
2018-05-26T11:39:27.135Z,52.47
2018-05-26T11:40:27.292Z,52.30
2018-05-26T11:41:27.456Z,52.08
2018-05-26T11:42:27.611Z,51.98
2018-05-26T11:43:27.751Z,53.05
2018-05-26T11:44:27.920Z,53.73
2018-05-26T11:45:28.118Z,53.05
2018-05-26T11:46:28.159Z,52.86
2018-05-26T11:47:28.306Z,53.31
2018-05-26T11:48:28.484Z,52.37
2018-05-26T11:49:28.633Z,52.44
2018-05-26T11:50:28.777Z,52.44
2018-05-26T11:51:28.915Z,52.64
2018-05-26T11:52:29.056Z,51.01
2018-05-26T11:53:29.196Z,51.01
2018-05-26T11:54:29.346Z,52.18
2018-05-26T11:55:29.486Z,53.34
2018-05-26T11:56:29.640Z,54.82
2018-05-26T11:57:29.783Z,55.02
2018-05-26T11:58:29.930Z,54.14
2018-05-26T11:59:30.078Z,52.50
2018-05-26T12:00:30.213Z,52.88
2018-05-26T12:01:30.353Z,52.88
2018-05-26T12:02:30.510Z,52.30
2018-05-26T12:03:30.652Z,52.37
2018-05-26T12:04:30.808Z,50.72
2018-05-26T12:05:30.955Z,52.11
2018-05-26T12:06:31.103Z,51.43
2018-05-26T12:07:31.252Z,50.94
2018-05-26T12:08:31.401Z,52.01
2018-05-26T12:09:31.540Z,50.74
2018-05-26T12:10:31.690Z,52.01
2018-05-26T12:11:31.837Z,52.72
2018-05-26T12:12:31.978Z,52.91
2018-05-26T12:13:32.123Z,51.45
2018-05-26T12:14:32.278Z,50.96
2018-05-26T12:15:32.439Z,51.38
2018-05-26T12:16:32.581Z,49.24
2018-05-26T12:17:32.789Z,47.20
2018-05-26T12:18:32.866Z,45.94
2018-05-26T12:19:33.044Z,48.39
2018-05-26T12:20:33.182Z,49.17
2018-05-26T12:21:33.338Z,47.23
2018-05-26T12:22:33.483Z,45.57
2018-05-26T12:23:33.639Z,45.09
2018-05-26T12:24:33.775Z,47.91
2018-05-26T12:25:33.918Z,48.51
2018-05-26T12:26:34.072Z,47.64
2018-05-26T12:27:34.238Z,47.25
2018-05-26T12:28:34.377Z,46.37
2018-05-26T12:29:34.519Z,46.28
2018-05-26T12:30:34.685Z,46.28
2018-05-26T12:31:34.826Z,47.34
2018-05-26T12:32:34.972Z,47.44
2018-05-26T12:33:35.118Z,46.18
2018-05-26T12:34:35.268Z,46.28
2018-05-26T12:35:35.420Z,47.54
2018-05-26T12:36:35.574Z,47.96
2018-05-26T12:37:35.739Z,48.25
2018-05-26T12:38:35.885Z,47.08
2018-05-26T12:39:36.075Z,45.42
2018-05-26T12:40:36.239Z,45.23
2018-05-26T12:41:36.385Z,46.11
2018-05-26T12:42:36.563Z,46.30
2018-05-26T12:43:36.710Z,46.69
2018-05-26T12:44:36.855Z,46.67
2018-05-26T12:45:36.999Z,47.25
2018-05-26T12:46:37.145Z,46.86
2018-05-26T12:47:37.296Z,46.96
2018-05-26T12:48:37.440Z,48.22
2018-05-26T12:49:37.588Z,47.42
2018-05-26T12:50:37.729Z,47.42
2018-05-26T12:51:37.887Z,47.03
2018-05-26T12:52:38.039Z,47.52
2018-05-26T12:53:38.182Z,47.71
2018-05-26T12:54:38.335Z,47.61
2018-05-26T12:55:38.477Z,47.81